EHBK/MST METAR and TAF weather

Enter ICAO airport designator
Station Type Date Time Source
EHBK METAR 2019/02/23 02:25 UTC NOAA

EHBK 230225Z AUTO 09006KT 5000 BR NCD 05/04 Q1037


Station Type Date Time Source
EHBK Decoded METAR 2019/02/23 02:25 UTC NOAA

Maastricht Airport Zuid Limburg, Netherlands (EHBK) 50-55N 005-47E 116M
Feb 22, 2019 - 09:25 PM EST / 2019.02.23 0225 UTC
Wind: from the E (090 degrees) at 7 MPH (6 KT):0
Visibility: 3 mile(s):0
Weather: mist
Temperature: 41 F (5 C)
Dew Point: 39 F (4 C)
Relative Humidity: 93%
Pressure (altimeter): 30.62 in. Hg (1037 hPa)
ob: EHBK 230225Z AUTO 09006KT 5000 BR NCD 05/04 Q1037
cycle: 2

Station Type Date Time Source
EHBK TAF 2019/02/22 20:56 UTC NOAA

TAF
AMD EHBK 222049Z 2220/2324 09005KT 9999 SCT035
TEMPO 2220/2223 5000 BR


Example: see airport list